Time;durP1;ratioP1;P1;durP2;ratioP2;P2;SDS_P1;SDS_P2;PMS_P1;PMS_P2;Temp;Humidity;BMP_temperature;BMP_pressure;BME280_temperature;BME280_humidity;BME280_pressure;Samples;Min_cycle;Max_cycle;Signal;HPM_P1;HPM_P2
2023/08/23 00:01:36;0.00;0.00;0.62;0.00;0.00;0.62;2.40;1.83;;;32.50;28.10;;;;;;2264948;61;20931;-54
2023/08/23 00:04:21;0.00;0.00;0.62;0.00;0.00;0.62;2.20;1.77;;;32.50;28.10;;;;;;2264194;61;20856;-55
2023/08/23 00:07:05;0.00;0.00;0.62;0.00;0.00;0.62;2.87;1.70;;;32.50;28.10;;;;;;2265212;61;20407;-51
2023/08/23 00:09:52;0.00;0.00;0.62;0.00;0.00;0.62;1.70;1.53;;;32.50;28.10;;;;;;2265285;61;20789;-53
2023/08/23 00:12:36;0.00;0.00;0.62;0.00;0.00;0.62;2.00;1.80;;;32.50;28.10;;;;;;2264651;61;20364;-52
2023/08/23 00:15:21;0.00;0.00;0.62;0.00;0.00;0.62;1.80;1.40;;;32.50;28.10;;;;;;2265173;61;20392;-52
2023/08/23 00:18:06;0.00;0.00;0.62;0.00;0.00;0.62;2.20;1.80;;;32.50;28.10;;;;;;2265114;61;20379;-50
2023/08/23 00:20:50;0.00;0.00;0.62;0.00;0.00;0.62;2.23;1.93;;;32.50;28.10;;;;;;2265036;61;20419;-51
2023/08/23 00:23:35;0.00;0.00;0.62;0.00;0.00;0.62;2.00;1.80;;;32.50;28.20;;;;;;2265085;61;20359;-55
2023/08/23 00:26:21;0.00;0.00;0.62;0.00;0.00;0.62;2.87;1.83;;;32.50;28.20;;;;;;2264653;61;20388;-53
2023/08/23 00:29:06;0.00;0.00;0.62;0.00;0.00;0.62;2.27;2.07;;;32.50;28.20;;;;;;2264878;61;20422;-51
2023/08/23 00:31:50;0.00;0.00;0.62;0.00;0.00;0.62;2.30;1.80;;;32.50;28.20;;;;;;2264717;61;20376;-50
2023/08/23 00:34:35;0.00;0.00;0.62;0.00;0.00;0.62;2.47;2.10;;;32.50;28.20;;;;;;2264471;61;20462;-50
2023/08/23 00:37:19;0.00;0.00;0.62;0.00;0.00;0.62;2.10;1.80;;;32.50;28.20;;;;;;2264627;61;20457;-53
2023/08/23 00:40:06;0.00;0.00;0.62;0.00;0.00;0.62;2.00;1.57;;;32.50;28.20;;;;;;2265264;61;20828;-52
2023/08/23 00:42:52;0.00;0.00;0.62;0.00;0.00;0.62;2.00;1.57;;;32.40;28.10;;;;;;2264828;61;20502;-53
2023/08/23 00:45:40;0.00;0.00;0.62;0.00;0.00;0.62;2.10;1.80;;;32.40;28.10;;;;;;2264716;61;20391;-52
2023/08/23 00:48:24;0.00;0.00;0.62;0.00;0.00;0.62;3.47;2.10;;;32.40;28.10;;;;;;2264409;61;20659;-52
2023/08/23 00:51:10;0.00;0.00;0.62;0.00;0.00;0.62;2.70;1.80;;;32.50;28.20;;;;;;2265270;61;20375;-53
2023/08/23 00:53:54;0.00;0.00;0.62;0.00;0.00;0.62;2.00;1.77;;;32.40;28.10;;;;;;2264616;61;20862;-52
2023/08/23 00:56:39;0.00;0.00;0.62;0.00;0.00;0.62;3.40;1.90;;;32.40;28.10;;;;;;2264045;61;20414;-52
2023/08/23 00:59:25;0.00;0.00;0.62;0.00;0.00;0.62;2.33;1.90;;;32.40;28.10;;;;;;2265074;61;20404;-51
2023/08/23 01:02:10;0.00;0.00;0.62;0.00;0.00;0.62;2.40;1.90;;;32.40;28.20;;;;;;2265279;61;20368;-52
2023/08/23 01:04:54;0.00;0.00;0.62;0.00;0.00;0.62;2.17;1.80;;;32.40;28.20;;;;;;2264629;61;20843;-51
2023/08/23 01:07:53;0.00;0.00;0.62;0.00;0.00;0.62;2.97;1.83;;;32.40;28.20;;;;;;2264942;61;20789;-54
2023/08/23 01:10:46;0.00;0.00;0.62;0.00;0.00;0.62;2.43;1.83;;;32.40;28.20;;;;;;2264723;61;20887;-53
2023/08/23 01:13:40;0.00;0.00;0.62;0.00;0.00;0.62;2.30;1.90;;;32.40;28.20;;;;;;2264474;61;20371;-55
2023/08/23 01:16:26;0.00;0.00;0.62;0.00;0.00;0.62;2.40;2.03;;;32.40;28.20;;;;;;2264719;61;20828;-53
2023/08/23 01:19:42;0.00;0.00;0.62;0.00;0.00;0.62;2.00;1.73;;;32.40;28.20;;;;;;2264279;61;20368;-53
2023/08/23 01:22:32;0.00;0.00;0.62;0.00;0.00;0.62;2.00;1.73;;;32.30;28.10;;;;;;2264561;61;20442;-56
2023/08/23 01:25:18;0.00;0.00;0.62;0.00;0.00;0.62;2.70;2.00;;;32.40;28.20;;;;;;2264287;61;20372;-53
2023/08/23 01:28:05;0.00;0.00;0.62;0.00;0.00;0.62;2.50;1.93;;;32.30;28.10;;;;;;2264812;61;20364;-52
2023/08/23 01:30:50;0.00;0.00;0.62;0.00;0.00;0.62;2.83;1.40;;;32.30;28.20;;;;;;2265165;61;20430;-53
2023/08/23 01:33:40;0.00;0.00;0.62;0.00;0.00;0.62;1.80;1.50;;;32.30;28.20;;;;;;2261107;61;20364;-53
2023/08/23 01:36:30;0.00;0.00;0.62;0.00;0.00;0.62;1.77;1.47;;;32.30;28.20;;;;;;2265063;61;20502;-54
2023/08/23 01:39:16;0.00;0.00;0.62;0.00;0.00;0.62;2.00;1.40;;;32.30;28.20;;;;;;2258253;61;20388;-52
2023/08/23 01:42:02;0.00;0.00;0.62;0.00;0.00;0.62;1.53;1.43;;;32.30;28.20;;;;;;2260378;61;20937;-52
2023/08/23 01:44:49;0.00;0.00;0.62;0.00;0.00;0.62;2.50;1.90;;;32.30;28.20;;;;;;2259968;61;20407;-53
2023/08/23 01:47:34;0.00;0.00;0.62;0.00;0.00;0.62;1.90;1.57;;;32.30;28.20;;;;;;2260278;61;20385;-49
2023/08/23 01:50:21;0.00;0.00;0.62;0.00;0.00;0.62;1.93;1.70;;;32.20;28.10;;;;;;2260819;61;20357;-54
2023/08/23 01:53:05;0.00;0.00;0.62;0.00;0.00;0.62;2.30;1.77;;;32.30;28.20;;;;;;2260820;61;20356;-55
2023/08/23 01:55:50;0.00;0.00;0.62;0.00;0.00;0.62;2.10;1.90;;;32.20;28.10;;;;;;2260031;61;20401;-49
2023/08/23 01:58:36;0.00;0.00;0.62;0.00;0.00;0.62;2.67;1.57;;;32.20;28.20;;;;;;2260337;61;20412;-54
2023/08/23 02:01:21;0.00;0.00;0.62;0.00;0.00;0.62;2.10;1.70;;;32.20;28.10;;;;;;2260689;61;20369;-49
2023/08/23 02:04:05;0.00;0.00;0.62;0.00;0.00;0.62;2.17;1.70;;;32.20;28.20;;;;;;2259864;61;20472;-53
2023/08/23 02:06:50;0.00;0.00;0.62;0.00;0.00;0.62;2.27;1.70;;;32.20;28.10;;;;;;2261127;61;20360;-55
2023/08/23 02:09:35;0.00;0.00;0.62;0.00;0.00;0.62;1.90;1.60;;;32.20;28.20;;;;;;2260326;61;20381;-51
2023/08/23 02:12:19;0.00;0.00;0.62;0.00;0.00;0.62;2.67;1.50;;;32.20;28.20;;;;;;2261464;61;20380;-52
2023/08/23 02:15:07;0.00;0.00;0.62;0.00;0.00;0.62;1.97;1.77;;;32.20;28.20;;;;;;2260090;61;20389;-55
2023/08/23 02:17:52;0.00;0.00;0.62;0.00;0.00;0.62;2.33;1.70;;;32.20;28.20;;;;;;2259816;61;20775;-53
2023/08/23 02:20:37;0.00;0.00;0.62;0.00;0.00;0.62;2.33;1.70;;;32.20;28.20;;;;;;2260052;61;20776;-52
2023/08/23 02:23:22;0.00;0.00;0.62;0.00;0.00;0.62;3.10;1.90;;;32.20;28.20;;;;;;2260111;61;20948;-50
2023/08/23 02:26:07;0.00;0.00;0.62;0.00;0.00;0.62;2.23;1.80;;;32.20;28.20;;;;;;2259354;61;20909;-51
2023/08/23 02:28:53;0.00;0.00;0.62;0.00;0.00;0.62;1.90;1.67;;;32.20;28.20;;;;;;2260047;61;20420;-54
2023/08/23 02:31:39;0.00;0.00;0.62;0.00;0.00;0.62;1.87;1.40;;;32.20;28.20;;;;;;2260114;61;20389;-53
2023/08/23 02:34:24;0.00;0.00;0.62;0.00;0.00;0.62;5.20;1.80;;;32.10;28.20;;;;;;2260178;61;20438;-56
2023/08/23 02:37:09;0.00;0.00;0.62;0.00;0.00;0.62;1.73;1.53;;;32.20;28.20;;;;;;2260919;61;20364;-51
2023/08/23 02:39:53;0.00;0.00;0.62;0.00;0.00;0.62;1.70;1.40;;;32.20;28.20;;;;;;2260252;61;20396;-50
2023/08/23 02:42:38;0.00;0.00;0.62;0.00;0.00;0.62;2.33;1.67;;;32.10;28.20;;;;;;2260989;61;20683;-53
2023/08/23 02:45:22;0.00;0.00;0.62;0.00;0.00;0.62;2.13;1.30;;;32.10;28.10;;;;;;2260129;61;20538;-51
2023/08/23 02:48:10;0.00;0.00;0.62;0.00;0.00;0.62;2.20;1.40;;;32.20;28.20;;;;;;2260364;61;20504;-54
2023/08/23 02:50:54;0.00;0.00;0.62;0.00;0.00;0.62;2.20;1.60;;;32.10;28.10;;;;;;2260898;61;20361;-51
2023/08/23 02:53:39;0.00;0.00;0.62;0.00;0.00;0.62;2.57;1.70;;;32.10;28.10;;;;;;2259996;61;20388;-53
2023/08/23 02:56:24;0.00;0.00;0.62;0.00;0.00;0.62;2.70;2.20;;;32.10;28.10;;;;;;2260132;61;20400;-53
2023/08/23 02:59:08;0.00;0.00;0.62;0.00;0.00;0.62;2.00;1.80;;;32.10;28.10;;;;;;2260848;61;20423;-50
2023/08/23 03:01:54;0.00;0.00;0.62;0.00;0.00;0.62;2.03;1.77;;;32.10;28.10;;;;;;2259773;61;20373;-54
2023/08/23 03:04:40;0.00;0.00;0.62;0.00;0.00;0.62;2.00;1.80;;;32.10;28.10;;;;;;2261621;61;20480;-51
2023/08/23 03:07:27;0.00;0.00;0.62;0.00;0.00;0.62;2.40;1.60;;;32.10;28.20;;;;;;2264345;61;20356;-50
2023/08/23 03:10:12;0.00;0.00;0.62;0.00;0.00;0.62;2.20;1.73;;;32.10;28.20;;;;;;2264267;61;20402;-52
2023/08/23 03:12:56;0.00;0.00;0.62;0.00;0.00;0.62;1.97;1.57;;;32.10;28.20;;;;;;2264403;61;20943;-54
2023/08/23 03:15:41;0.00;0.00;0.62;0.00;0.00;0.62;3.03;1.60;;;32.10;28.20;;;;;;2264163;61;20445;-49
2023/08/23 03:18:27;0.00;0.00;0.62;0.00;0.00;0.62;2.93;2.17;;;32.00;28.10;;;;;;2264113;61;20368;-50
2023/08/23 03:21:13;0.00;0.00;0.62;0.00;0.00;0.62;2.57;1.50;;;32.00;28.10;;;;;;2264413;61;20359;-54
2023/08/23 03:24:01;0.00;0.00;0.62;0.00;0.00;0.62;2.47;1.60;;;32.10;28.20;;;;;;2263498;61;20367;-52
2023/08/23 03:26:46;0.00;0.00;0.62;0.00;0.00;0.62;1.93;1.73;;;32.00;28.20;;;;;;2264981;61;20410;-51
2023/08/23 03:29:31;0.00;0.00;0.62;0.00;0.00;0.62;3.00;1.73;;;32.00;28.10;;;;;;2264167;61;20410;-52
2023/08/23 03:32:17;0.00;0.00;0.62;0.00;0.00;0.62;2.10;1.80;;;32.00;28.10;;;;;;2264116;61;20368;-50
2023/08/23 03:35:01;0.00;0.00;0.62;0.00;0.00;0.62;2.00;1.60;;;32.00;28.10;;;;;;2264011;61;20931;-52
2023/08/23 03:37:48;0.00;0.00;0.62;0.00;0.00;0.62;1.90;1.60;;;32.00;28.20;;;;;;2264361;61;20403;-53
2023/08/23 03:40:37;0.00;0.00;0.62;0.00;0.00;0.62;3.60;1.60;;;32.00;28.10;;;;;;2264391;61;20367;-52
2023/08/23 03:43:21;0.00;0.00;0.62;0.00;0.00;0.62;2.10;1.70;;;32.00;28.20;;;;;;2264461;61;20404;-50
2023/08/23 03:46:06;0.00;0.00;0.62;0.00;0.00;0.62;3.57;2.17;;;32.00;28.10;;;;;;2264629;61;20388;-55
2023/08/23 03:48:51;0.00;0.00;0.62;0.00;0.00;0.62;2.77;1.90;;;32.00;28.20;;;;;;2264747;61;20403;-52
2023/08/23 03:51:35;0.00;0.00;0.62;0.00;0.00;0.62;2.17;1.60;;;32.00;28.10;;;;;;2265060;61;20818;-53
2023/08/23 03:54:21;0.00;0.00;0.62;0.00;0.00;0.62;3.60;2.07;;;31.90;28.60;;;;;;2263617;61;20796;-52
2023/08/23 03:57:06;0.00;0.00;0.62;0.00;0.00;0.62;2.20;1.90;;;32.00;28.20;;;;;;2264962;61;20452;-56
2023/08/23 03:59:52;0.00;0.00;0.62;0.00;0.00;0.62;2.23;1.90;;;31.90;28.10;;;;;;2264900;61;20414;-52
2023/08/23 04:02:36;0.00;0.00;0.62;0.00;0.00;0.62;2.83;2.10;;;31.90;28.10;;;;;;2264786;61;20829;-54
2023/08/23 04:05:21;0.00;0.00;0.62;0.00;0.00;0.62;2.80;1.83;;;31.90;28.10;;;;;;2264537;61;20459;-55
2023/08/23 04:08:06;0.00;0.00;0.62;0.00;0.00;0.62;2.70;2.00;;;31.90;28.10;;;;;;2264267;61;20480;-53
2023/08/23 04:10:52;0.00;0.00;0.62;0.00;0.00;0.62;4.40;2.07;;;31.90;28.10;;;;;;2265363;61;20395;-52
2023/08/23 04:13:37;0.00;0.00;0.62;0.00;0.00;0.62;2.27;1.90;;;31.90;28.10;;;;;;2265170;61;20367;-54
2023/08/23 04:16:22;0.00;0.00;0.62;0.00;0.00;0.62;2.33;1.67;;;31.90;28.60;;;;;;2264539;61;20446;-49
2023/08/23 04:19:07;0.00;0.00;0.62;0.00;0.00;0.62;2.90;1.90;;;31.90;28.10;;;;;;2265090;61;20364;-55
2023/08/23 04:21:52;0.00;0.00;0.62;0.00;0.00;0.62;2.80;2.20;;;31.90;28.10;;;;;;2265001;61;20364;-55
2023/08/23 04:24:39;0.00;0.00;0.62;0.00;0.00;0.62;2.60;2.10;;;31.90;28.10;;;;;;2264044;61;20419;-54
2023/08/23 04:27:25;0.00;0.00;0.62;0.00;0.00;0.62;2.40;2.10;;;31.80;28.00;;;;;;2264701;61;20395;-52
2023/08/23 04:30:11;0.00;0.00;0.62;0.00;0.00;0.62;3.00;2.03;;;31.80;28.00;;;;;;2265180;61;20364;-54
2023/08/23 04:32:58;0.00;0.00;0.62;0.00;0.00;0.62;2.97;2.10;;;31.80;28.10;;;;;;2264649;61;20938;-52
2023/08/23 04:35:44;0.00;0.00;0.62;0.00;0.00;0.62;3.13;1.67;;;31.80;28.10;;;;;;2264363;61;20396;-49
2023/08/23 04:38:28;0.00;0.00;0.62;0.00;0.00;0.62;3.70;2.13;;;31.80;28.00;;;;;;2263442;61;20368;-57
2023/08/23 04:41:12;0.00;0.00;0.62;0.00;0.00;0.62;2.50;2.00;;;31.80;28.00;;;;;;2263925;61;20844;-49
2023/08/23 04:43:59;0.00;0.00;0.62;0.00;0.00;0.62;2.30;2.00;;;31.80;28.00;;;;;;2263779;61;20457;-52
2023/08/23 04:46:44;0.00;0.00;0.62;0.00;0.00;0.62;2.47;1.90;;;31.80;28.10;;;;;;2263867;61;20415;-52
2023/08/23 04:49:29;0.00;0.00;0.62;0.00;0.00;0.62;2.43;1.83;;;31.80;28.00;;;;;;2263914;61;20379;-54
2023/08/23 04:52:14;0.00;0.00;0.62;0.00;0.00;0.62;3.60;2.00;;;31.80;28.00;;;;;;2264009;61;20371;-48
2023/08/23 04:54:58;0.00;0.00;0.62;0.00;0.00;0.62;2.50;2.07;;;31.80;28.00;;;;;;2263212;61;20431;-53
2023/08/23 04:57:43;0.00;0.00;0.62;0.00;0.00;0.62;3.33;1.90;;;31.80;28.00;;;;;;2264459;61;20783;-53
2023/08/23 05:00:29;0.00;0.00;0.62;0.00;0.00;0.62;2.07;1.80;;;31.80;28.00;;;;;;2263488;61;20676;-55
2023/08/23 05:03:13;0.00;0.00;0.62;0.00;0.00;0.62;2.10;1.80;;;31.80;28.00;;;;;;2263617;61;20761;-51
2023/08/23 05:05:59;0.00;0.00;0.62;0.00;0.00;0.62;3.63;2.23;;;31.80;28.10;;;;;;2261066;61;20944;-55
2023/08/23 05:08:44;0.00;0.00;0.62;0.00;0.00;0.62;1.90;1.57;;;31.80;28.00;;;;;;2263403;61;20948;-51
2023/08/23 05:11:33;0.00;0.00;0.62;0.00;0.00;0.62;2.00;1.53;;;31.80;28.10;;;;;;2263923;61;20808;-55
2023/08/23 05:14:17;0.00;0.00;0.62;0.00;0.00;0.62;2.30;1.97;;;31.80;28.00;;;;;;2263740;61;20772;-59
2023/08/23 05:17:04;0.00;0.00;0.62;0.00;0.00;0.62;2.83;2.40;;;31.80;28.00;;;;;;2263548;61;20437;-52
2023/08/23 05:19:49;0.00;0.00;0.62;0.00;0.00;0.62;2.43;2.07;;;31.80;28.10;;;;;;2264049;61;20781;-52
2023/08/23 05:22:33;0.00;0.00;0.62;0.00;0.00;0.62;2.17;1.93;;;31.70;28.00;;;;;;2263219;61;20834;-51
2023/08/23 05:25:18;0.00;0.00;0.62;0.00;0.00;0.62;2.90;2.33;;;31.80;28.10;;;;;;2263575;61;20376;-52
2023/08/23 05:28:03;0.00;0.00;0.62;0.00;0.00;0.62;2.33;2.13;;;31.70;28.00;;;;;;2263749;61;20414;-53
2023/08/23 05:30:49;0.00;0.00;0.62;0.00;0.00;0.62;2.67;2.10;;;31.70;28.00;;;;;;2263222;61;20776;-49
2023/08/23 05:33:39;0.00;0.00;0.62;0.00;0.00;0.62;2.00;1.57;;;31.70;28.50;;;;;;2263582;61;20806;-50
2023/08/23 05:36:24;0.00;0.00;0.62;0.00;0.00;0.62;3.20;2.37;;;31.70;28.00;;;;;;2263831;61;20411;-49
2023/08/23 05:39:10;0.00;0.00;0.62;0.00;0.00;0.62;3.40;2.17;;;31.70;28.00;;;;;;2263426;61;20922;-51
2023/08/23 05:41:54;0.00;0.00;0.62;0.00;0.00;0.62;3.07;1.87;;;31.80;28.10;;;;;;2263835;61;20382;-48
2023/08/23 05:44:40;0.00;0.00;0.62;0.00;0.00;0.62;3.53;2.00;;;31.70;28.10;;;;;;2262791;61;20823;-52
2023/08/23 05:47:25;0.00;0.00;0.62;0.00;0.00;0.62;4.33;2.60;;;31.70;28.10;;;;;;2263792;61;20368;-50
2023/08/23 05:50:11;0.00;0.00;0.62;0.00;0.00;0.62;2.43;1.63;;;31.70;28.10;;;;;;2264293;61;20494;-52
2023/08/23 05:52:56;0.00;0.00;0.62;0.00;0.00;0.62;3.93;2.50;;;31.80;28.10;;;;;;2263416;61;20368;-53
2023/08/23 05:55:40;0.00;0.00;0.62;0.00;0.00;0.62;3.23;2.30;;;31.70;28.10;;;;;;2264285;61;20800;-49
2023/08/23 05:58:25;0.00;0.00;0.62;0.00;0.00;0.62;2.77;1.83;;;31.70;28.10;;;;;;2264242;61;20410;-51
2023/08/23 06:01:10;0.00;0.00;0.62;0.00;0.00;0.62;3.33;2.30;;;31.70;28.10;;;;;;2263439;61;20368;-54
2023/08/23 06:03:54;0.00;0.00;0.62;0.00;0.00;0.62;3.17;2.50;;;31.70;28.10;;;;;;2263871;61;20363;-58
2023/08/23 06:06:40;0.00;0.00;0.62;0.00;0.00;0.62;2.93;2.30;;;31.70;28.10;;;;;;2263912;61;20355;-51
2023/08/23 06:09:25;0.00;0.00;0.62;0.00;0.00;0.62;4.63;2.40;;;31.70;28.10;;;;;;2264459;61;20364;-54
2023/08/23 06:12:09;0.00;0.00;0.62;0.00;0.00;0.62;3.03;2.60;;;31.70;28.10;;;;;;2264233;61;20396;-53
2023/08/23 06:14:54;0.00;0.00;0.62;0.00;0.00;0.62;2.27;1.90;;;31.70;28.10;;;;;;2263266;61;20388;-51
2023/08/23 06:17:38;0.00;0.00;0.62;0.00;0.00;0.62;3.20;2.27;;;31.70;28.20;;;;;;2264415;61;20452;-51
2023/08/23 06:20:23;0.00;0.00;0.62;0.00;0.00;0.62;3.07;2.00;;;31.70;28.20;;;;;;2264105;61;20363;-50
2023/08/23 06:23:09;0.00;0.00;0.62;0.00;0.00;0.62;3.83;2.07;;;31.70;28.20;;;;;;2263210;61;20444;-57
2023/08/23 06:25:58;0.00;0.00;0.62;0.00;0.00;0.62;3.50;2.30;;;31.70;28.20;;;;;;2264346;61;20434;-54
2023/08/23 06:28:42;0.00;0.00;0.62;0.00;0.00;0.62;2.87;2.10;;;31.70;28.20;;;;;;2263735;61;20887;-53
2023/08/23 06:31:27;0.00;0.00;0.62;0.00;0.00;0.62;2.93;2.30;;;31.70;28.20;;;;;;2264162;61;20454;-54
2023/08/23 06:34:12;0.00;0.00;0.62;0.00;0.00;0.62;3.13;2.30;;;31.70;28.20;;;;;;2263882;61;20432;-51
2023/08/23 06:36:56;0.00;0.00;0.62;0.00;0.00;0.62;4.23;2.40;;;31.70;28.20;;;;;;2263611;61;20388;-49
2023/08/23 06:39:42;0.00;0.00;0.62;0.00;0.00;0.62;2.60;1.97;;;31.70;28.20;;;;;;2264146;61;20676;-53
2023/08/23 06:42:26;0.00;0.00;0.62;0.00;0.00;0.62;2.50;2.10;;;31.70;28.20;;;;;;2264324;61;20817;-51
2023/08/23 06:45:11;0.00;0.00;0.62;0.00;0.00;0.62;3.17;2.40;;;31.70;28.20;;;;;;2263276;61;20789;-48
2023/08/23 06:47:56;0.00;0.00;0.62;0.00;0.00;0.62;3.27;2.50;;;31.70;28.30;;;;;;2264191;61;20467;-53
2023/08/23 06:50:40;0.00;0.00;0.62;0.00;0.00;0.62;3.27;2.20;;;31.70;28.30;;;;;;2263729;61;20395;-55
2023/08/23 06:53:25;0.00;0.00;0.62;0.00;0.00;0.62;2.40;1.90;;;31.70;28.30;;;;;;2263508;61;20867;-53
2023/08/23 06:56:11;0.00;0.00;0.62;0.00;0.00;0.62;3.97;2.27;;;31.70;28.30;;;;;;2263860;61;20400;-56
2023/08/23 06:58:56;0.00;0.00;0.62;0.00;0.00;0.62;3.20;2.13;;;31.70;28.30;;;;;;2263522;61;20368;-53
2023/08/23 07:01:41;0.00;0.00;0.62;0.00;0.00;0.62;2.70;2.07;;;31.70;28.30;;;;;;2263978;61;20364;-54
2023/08/23 07:04:25;0.00;0.00;0.62;0.00;0.00;0.62;3.10;1.80;;;31.70;28.40;;;;;;2263682;61;20465;-55
2023/08/23 07:07:09;0.00;0.00;0.62;0.00;0.00;0.62;6.37;2.40;;;31.70;28.30;;;;;;2263482;61;20359;-50
2023/08/23 07:09:54;0.00;0.00;0.62;0.00;0.00;0.62;3.13;2.10;;;31.70;28.40;;;;;;2263966;61;20364;-52
2023/08/23 07:12:40;0.00;0.00;0.62;0.00;0.00;0.62;3.00;2.10;;;31.70;28.40;;;;;;2264853;61;20505;-54
2023/08/23 07:15:25;0.00;0.00;0.62;0.00;0.00;0.62;2.50;2.00;;;31.70;28.40;;;;;;2264400;61;20392;-53
2023/08/23 07:18:10;0.00;0.00;0.62;0.00;0.00;0.62;2.77;2.07;;;31.70;28.40;;;;;;2264558;61;20404;-52
2023/08/23 07:20:54;0.00;0.00;0.62;0.00;0.00;0.62;2.33;1.73;;;31.70;28.40;;;;;;2264305;61;20437;-54
2023/08/23 07:23:40;0.00;0.00;0.62;0.00;0.00;0.62;2.23;1.63;;;31.70;28.40;;;;;;2264460;61;20356;-50
2023/08/23 07:26:25;0.00;0.00;0.62;0.00;0.00;0.62;2.90;1.90;;;31.70;28.40;;;;;;2264670;61;20500;-53
2023/08/23 07:29:15;0.00;0.00;0.62;0.00;0.00;0.62;3.10;2.10;;;31.70;28.50;;;;;;2264098;61;20383;-49
2023/08/23 07:32:00;0.00;0.00;0.62;0.00;0.00;0.62;2.73;2.17;;;31.70;28.50;;;;;;2264275;61;20356;-51
2023/08/23 07:34:44;0.00;0.00;0.62;0.00;0.00;0.62;3.27;2.40;;;31.70;28.50;;;;;;2264403;61;20434;-53
2023/08/23 07:37:29;0.00;0.00;0.62;0.00;0.00;0.62;3.03;2.23;;;31.70;28.50;;;;;;2264412;61;20935;-53
2023/08/23 07:40:14;0.00;0.00;0.62;0.00;0.00;0.62;3.67;1.87;;;31.70;28.50;;;;;;2264503;61;20440;-53
2023/08/23 07:42:58;0.00;0.00;0.62;0.00;0.00;0.62;3.17;1.83;;;31.70;28.50;;;;;;2264512;61;20911;-56
2023/08/23 07:45:44;0.00;0.00;0.62;0.00;0.00;0.62;2.77;1.87;;;31.70;28.50;;;;;;2264564;61;20444;-50
2023/08/23 07:48:29;0.00;0.00;0.62;0.00;0.00;0.62;2.77;1.80;;;31.70;28.60;;;;;;2264627;61;21022;-53
2023/08/23 07:51:14;0.00;0.00;0.62;0.00;0.00;0.62;2.77;2.03;;;31.70;28.60;;;;;;2264124;61;20452;-51
2023/08/23 07:53:58;0.00;0.00;0.62;0.00;0.00;0.62;2.07;1.60;;;31.70;28.60;;;;;;2263750;61;20368;-55
2023/08/23 07:56:43;0.00;0.00;0.62;0.00;0.00;0.62;2.20;1.70;;;31.80;28.70;;;;;;2264527;61;20857;-52
2023/08/23 07:59:27;0.00;0.00;0.62;0.00;0.00;0.62;2.50;1.67;;;31.80;28.70;;;;;;2264153;61;20429;-53
2023/08/23 08:02:13;0.00;0.00;0.62;0.00;0.00;0.62;3.10;2.10;;;31.80;28.70;;;;;;2264601;61;20426;-54
2023/08/23 08:04:57;0.00;0.00;0.62;0.00;0.00;0.62;3.23;2.30;;;31.80;28.70;;;;;;2264035;61;20408;-53
2023/08/23 08:07:42;0.00;0.00;0.62;0.00;0.00;0.62;2.70;2.00;;;31.80;28.70;;;;;;2264644;61;20367;-53
2023/08/23 08:10:27;0.00;0.00;0.62;0.00;0.00;0.62;2.30;1.77;;;31.80;28.70;;;;;;2264658;61;20503;-55
2023/08/23 08:13:11;0.00;0.00;0.62;0.00;0.00;0.62;2.53;1.90;;;31.80;28.70;;;;;;2263812;61;20868;-50
2023/08/23 08:15:56;0.00;0.00;0.62;0.00;0.00;0.62;2.60;2.40;;;31.80;28.70;;;;;;2264501;61;20504;-56
2023/08/23 08:18:45;0.00;0.00;0.62;0.00;0.00;0.62;3.10;1.90;;;31.80;28.70;;;;;;2264610;61;20406;-54
2023/08/23 08:21:30;0.00;0.00;0.62;0.00;0.00;0.62;3.00;1.73;;;31.80;28.70;;;;;;2263990;61;20522;-54
2023/08/23 08:24:14;0.00;0.00;0.62;0.00;0.00;0.62;2.53;1.53;;;31.80;28.70;;;;;;2264166;61;21004;-55
2023/08/23 08:26:59;0.00;0.00;0.62;0.00;0.00;0.62;2.70;2.10;;;31.80;28.70;;;;;;2264205;61;20830;-54
2023/08/23 08:29:44;0.00;0.00;0.62;0.00;0.00;0.62;2.50;1.60;;;31.80;28.70;;;;;;2264384;61;20411;-51
2023/08/23 08:32:28;0.00;0.00;0.62;0.00;0.00;0.62;2.30;1.80;;;31.80;28.70;;;;;;2264678;61;20372;-54
2023/08/23 08:35:14;0.00;0.00;0.62;0.00;0.00;0.62;3.43;2.07;;;31.80;28.70;;;;;;2263454;61;20384;-53
2023/08/23 08:37:59;0.00;0.00;0.62;0.00;0.00;0.62;2.73;1.63;;;31.80;28.70;;;;;;2264557;61;20417;-53
2023/08/23 08:40:44;0.00;0.00;0.62;0.00;0.00;0.62;2.23;1.73;;;31.80;28.70;;;;;;2264469;61;20351;-54
2023/08/23 08:43:30;0.00;0.00;0.62;0.00;0.00;0.62;2.60;1.90;;;31.80;28.80;;;;;;2263302;61;20367;-50
2023/08/23 08:46:15;0.00;0.00;0.62;0.00;0.00;0.62;2.83;1.80;;;31.80;28.70;;;;;;2264160;61;20469;-52
2023/08/23 08:49:00;0.00;0.00;0.62;0.00;0.00;0.62;1.90;1.37;;;31.80;28.70;;;;;;2264373;61;20362;-56
2023/08/23 08:51:47;0.00;0.00;0.62;0.00;0.00;0.62;2.50;2.20;;;31.80;28.80;;;;;;2264172;61;20466;-54
2023/08/23 08:54:34;0.00;0.00;0.62;0.00;0.00;0.62;3.20;1.73;;;31.80;28.80;;;;;;2264032;61;20499;-52
2023/08/23 08:57:20;0.00;0.00;0.62;0.00;0.00;0.62;3.33;2.20;;;31.80;28.80;;;;;;2263608;61;20395;-51
2023/08/23 09:00:07;0.00;0.00;0.62;0.00;0.00;0.62;2.83;1.90;;;31.80;28.80;;;;;;2264528;61;20360;-52
2023/08/23 09:02:54;0.00;0.00;0.62;0.00;0.00;0.62;2.10;1.70;;;31.80;28.80;;;;;;2263974;61;20416;-49
2023/08/23 09:05:39;0.00;0.00;0.62;0.00;0.00;0.62;2.60;1.80;;;31.80;28.80;;;;;;2263858;61;20454;-50
2023/08/23 09:08:26;0.00;0.00;0.62;0.00;0.00;0.62;2.67;1.70;;;31.80;28.80;;;;;;2264262;61;20364;-53
2023/08/23 09:11:11;0.00;0.00;0.62;0.00;0.00;0.62;2.60;1.70;;;31.80;28.80;;;;;;2264309;61;20399;-57
2023/08/23 09:13:55;0.00;0.00;0.62;0.00;0.00;0.62;3.67;2.13;;;31.90;28.90;;;;;;2263847;61;20447;-56
2023/08/23 09:16:40;0.00;0.00;0.62;0.00;0.00;0.62;3.23;1.60;;;31.80;28.80;;;;;;2264137;61;20392;-52
2023/08/23 09:19:24;0.00;0.00;0.62;0.00;0.00;0.62;2.43;1.70;;;31.80;28.80;;;;;;2263821;61;20363;-52
2023/08/23 09:22:12;0.00;0.00;0.62;0.00;0.00;0.62;2.10;1.60;;;31.90;28.90;;;;;;2264361;61;20368;-51
2023/08/23 09:24:58;0.00;0.00;0.62;0.00;0.00;0.62;3.33;2.03;;;31.90;28.90;;;;;;2264199;61;20423;-50
2023/08/23 09:27:43;0.00;0.00;0.62;0.00;0.00;0.62;2.37;1.50;;;31.90;28.90;;;;;;2264029;61;20479;-50
2023/08/23 09:30:28;0.00;0.00;0.62;0.00;0.00;0.62;2.03;1.80;;;31.90;28.90;;;;;;2264318;61;20364;-51
2023/08/23 09:33:12;0.00;0.00;0.62;0.00;0.00;0.62;2.40;1.63;;;31.90;28.90;;;;;;2264064;61;20468;-50
2023/08/23 09:35:58;0.00;0.00;0.62;0.00;0.00;0.62;3.10;1.70;;;31.90;28.90;;;;;;2263860;61;20392;-51
2023/08/23 09:38:43;0.00;0.00;0.62;0.00;0.00;0.62;2.20;1.80;;;31.90;28.90;;;;;;2264236;61;20460;-50
2023/08/23 09:41:29;0.00;0.00;0.62;0.00;0.00;0.62;2.90;1.87;;;31.90;28.90;;;;;;2263832;61;20865;-51
2023/08/23 09:44:15;0.00;0.00;0.62;0.00;0.00;0.62;1.80;1.40;;;31.90;28.90;;;;;;2263937;61;20367;-51
2023/08/23 09:47:00;0.00;0.00;0.62;0.00;0.00;0.62;3.00;2.10;;;31.90;28.90;;;;;;2264393;61;20359;-51
2023/08/23 09:49:45;0.00;0.00;0.62;0.00;0.00;0.62;1.87;1.40;;;31.90;28.90;;;;;;2263444;61;20424;-62
2023/08/23 09:52:31;0.00;0.00;0.62;0.00;0.00;0.62;4.10;1.80;;;31.90;28.90;;;;;;2263935;61;20360;-52
2023/08/23 09:55:17;0.00;0.00;0.62;0.00;0.00;0.62;2.87;1.60;;;31.90;28.90;;;;;;2264235;61;20387;-55
2023/08/23 09:58:03;0.00;0.00;0.62;0.00;0.00;0.62;3.27;1.90;;;32.00;29.00;;;;;;2263624;61;20364;-53
2023/08/23 10:00:51;0.00;0.00;0.62;0.00;0.00;0.62;2.50;2.00;;;32.00;29.00;;;;;;2264368;61;20380;-55
2023/08/23 10:03:36;0.00;0.00;0.62;0.00;0.00;0.62;2.40;1.90;;;32.00;29.00;;;;;;2264457;61;20414;-54
2023/08/23 10:06:22;0.00;0.00;0.62;0.00;0.00;0.62;3.17;1.70;;;32.00;29.00;;;;;;2264803;61;20384;-53
2023/08/23 10:09:08;0.00;0.00;0.62;0.00;0.00;0.62;3.07;2.00;;;32.00;28.90;;;;;;2264645;61;20964;-52
2023/08/23 10:11:53;0.00;0.00;0.62;0.00;0.00;0.62;2.33;2.03;;;32.00;29.00;;;;;;2264426;61;20447;-58
2023/08/23 10:14:43;0.00;0.00;0.62;0.00;0.00;0.62;2.43;1.70;;;32.00;28.90;;;;;;2264603;61;20499;-56
2023/08/23 10:17:29;0.00;0.00;0.62;0.00;0.00;0.62;2.30;1.70;;;32.00;28.90;;;;;;2264687;61;20519;-56
2023/08/23 10:20:14;0.00;0.00;0.62;0.00;0.00;0.62;2.20;1.57;;;32.00;28.90;;;;;;2264518;61;20453;-54
2023/08/23 10:22:58;0.00;0.00;0.62;0.00;0.00;0.62;2.10;1.77;;;32.00;28.90;;;;;;2264839;61;20349;-55
2023/08/23 10:25:45;0.00;0.00;0.62;0.00;0.00;0.62;2.37;1.27;;;32.00;28.90;;;;;;2264610;61;20965;-56
2023/08/23 10:28:29;0.00;0.00;0.62;0.00;0.00;0.62;2.57;1.70;;;32.10;29.00;;;;;;2264568;61;20375;-54
2023/08/23 10:31:21;0.00;0.00;0.62;0.00;0.00;0.62;2.13;1.33;;;32.00;28.90;;;;;;2264668;61;20375;-54
2023/08/23 10:34:08;0.00;0.00;0.62;0.00;0.00;0.62;2.03;1.83;;;32.00;28.90;;;;;;2263816;61;20454;-53
2023/08/23 10:36:54;0.00;0.00;0.62;0.00;0.00;0.62;2.03;1.50;;;32.10;29.00;;;;;;2264463;61;20376;-53
2023/08/23 10:39:44;0.00;0.00;0.62;0.00;0.00;0.62;3.43;2.10;;;32.10;29.00;;;;;;2264693;61;20364;-56
2023/08/23 10:42:29;0.00;0.00;0.62;0.00;0.00;0.62;2.17;1.50;;;32.10;28.90;;;;;;2264693;61;20379;-54
2023/08/23 10:45:16;0.00;0.00;0.62;0.00;0.00;0.62;2.30;1.77;;;32.10;28.90;;;;;;2264522;61;20379;-53
2023/08/23 10:48:02;0.00;0.00;0.62;0.00;0.00;0.62;2.00;1.50;;;32.10;28.90;;;;;;2264213;61;20356;-60
2023/08/23 10:50:48;0.00;0.00;0.62;0.00;0.00;0.62;1.90;1.43;;;32.10;28.90;;;;;;2264865;61;20372;-53
2023/08/23 10:53:32;0.00;0.00;0.62;0.00;0.00;0.62;1.93;1.53;;;32.10;28.90;;;;;;2264586;61;20372;-56